Time,TemperatureF,DewpointF,PressureIn,WindDirection,WindDirectionDegrees,WindSpeedMPH,WindSpeedGustMPH,Humidity,HourlyPrecipIn,Conditions,Clouds,dailyrainin,SoftwareType,DateUTC
2013-05-02 00:01:00,48.8,44.8,30.10,NNW,346,0.0,0.0,86,0.00,,,0.00,LWC V1.00 B64,2013-05-02 07:01:00,
2013-05-02 00:06:00,48.7,44.7,30.10,NNW,346,0.0,0.0,86,0.00,,,0.00,LWC V1.00 B64,2013-05-02 07:06:00,
2013-05-02 00:11:00,48.5,44.5,30.11,NNW,346,0.0,0.0,86,0.00,,,0.00,LWC V1.00 B64,2013-05-02 07:11:00,
2013-05-02 00:16:00,48.3,44.3,30.11,NNW,346,0.0,0.0,86,0.00,,,0.00,LWC V1.00 B64,2013-05-02 07:16:00,
2013-05-02 00:21:00,48.1,44.1,30.11,NNW,346,0.0,0.0,86,0.00,,,0.00,LWC V1.00 B64,2013-05-02 07:21:00,
2013-05-02 00:26:00,47.8,43.5,30.11,NNW,346,0.0,1.0,85,0.00,,,0.00,LWC V1.00 B64,2013-05-02 07:26:00,
2013-05-02 00:31:00,47.4,43.1,30.11,NNW,346,0.0,0.0,85,0.00,,,0.00,LWC V1.00 B64,2013-05-02 07:31:00,
2013-05-02 00:36:00,47.3,43.3,30.11,NNW,346,0.0,0.0,86,0.00,,,0.00,LWC V1.00 B64,2013-05-02 07:36:00,
2013-05-02 00:41:00,47.2,43.2,30.11,NNW,346,0.0,0.0,86,0.00,,,0.00,LWC V1.00 B64,2013-05-02 07:41:00,
2013-05-02 00:46:00,46.9,42.6,30.11,NNW,346,0.0,0.0,85,0.00,,,0.00,LWC V1.00 B64,2013-05-02 07:46:00,
2013-05-02 00:51:00,46.7,42.4,30.11,NNW,346,0.0,0.0,85,0.00,,,0.00,LWC V1.00 B64,2013-05-02 07:51:00,
2013-05-02 00:56:00,46.6,42.6,30.11,NNW,346,0.0,0.0,86,0.00,,,0.00,LWC V1.00 B64,2013-05-02 07:56:00,
2013-05-02 01:01:00,46.6,42.6,30.11,NNW,346,0.0,0.0,86,0.00,,,0.00,LWC V1.00 B64,2013-05-02 08:01:00,
2013-05-02 01:06:00,46.5,42.5,30.11,NNW,346,0.0,0.0,86,0.00,,,0.00,LWC V1.00 B64,2013-05-02 08:06:00,
2013-05-02 01:11:00,46.5,42.8,30.11,NNW,346,0.0,0.0,87,0.00,,,0.00,LWC V1.00 B64,2013-05-02 08:11:00,
2013-05-02 01:16:00,46.4,42.4,30.12,NNW,346,0.0,0.0,86,0.00,,,0.00,LWC V1.00 B64,2013-05-02 08:16:00,
2013-05-02 01:21:00,46.3,42.3,30.11,NNW,346,0.0,0.0,86,0.00,,,0.00,LWC V1.00 B64,2013-05-02 08:21:00,
2013-05-02 01:26:00,46.1,42.1,30.12,NNW,346,0.0,0.0,86,0.00,,,0.00,LWC V1.00 B64,2013-05-02 08:26:00,
2013-05-02 01:31:00,46.0,42.0,30.11,NNW,346,0.0,0.0,86,0.00,,,0.00,LWC V1.00 B64,2013-05-02 08:31:00,
2013-05-02 01:36:00,45.9,42.0,30.12,NNW,346,0.0,0.0,86,0.00,,,0.00,LWC V1.00 B64,2013-05-02 08:36:00,
2013-05-02 01:41:00,45.8,42.2,30.11,NNW,346,0.0,0.0,87,0.00,,,0.00,LWC V1.00 B64,2013-05-02 08:41:00,
2013-05-02 01:56:00,45.5,41.9,30.11,NNW,347,0.0,0.0,87,0.00,,,0.00,LWC V1.00 B64,2013-05-02 08:56:00,
2013-05-02 02:07:00,45.2,41.9,30.12,NNW,347,0.0,0.0,88,0.00,,,0.00,LWC V1.00 B64,2013-05-02 09:07:00,
2013-05-02 02:30:00,45.3,42.3,30.11,NNW,346,0.0,0.0,89,0.00,,,0.00,LWC V1.00 B64,2013-05-02 09:30:00,
2013-05-02 02:35:00,45.3,42.3,30.11,NNW,347,0.0,0.0,89,0.00,,,0.00,LWC V1.00 B64,2013-05-02 09:35:00,
2013-05-02 02:41:00,45.2,42.2,30.11,NNW,347,0.0,0.0,89,0.00,,,0.00,LWC V1.00 B64,2013-05-02 09:41:00,
2013-05-02 02:46:00,45.2,42.2,30.11,NNW,347,0.0,1.0,89,0.00,,,0.00,LWC V1.00 B64,2013-05-02 09:46:00,
2013-05-02 02:51:00,45.1,42.1,30.11,NNW,346,0.0,0.0,89,0.00,,,0.00,LWC V1.00 B64,2013-05-02 09:51:00,
2013-05-02 02:56:00,45.0,42.0,30.11,NNW,346,0.0,0.0,89,0.00,,,0.00,LWC V1.00 B64,2013-05-02 09:56:00,
2013-05-02 03:01:00,45.0,42.0,30.11,NNW,347,0.0,0.0,89,0.00,,,0.00,LWC V1.00 B64,2013-05-02 10:01:00,
2013-05-02 03:06:00,45.0,42.0,30.12,NNW,347,0.0,0.0,89,0.00,,,0.00,LWC V1.00 B64,2013-05-02 10:06:00,
2013-05-02 03:11:00,44.9,41.9,30.12,NNW,346,0.0,0.0,89,0.00,,,0.00,LWC V1.00 B64,2013-05-02 10:11:00,
2013-05-02 03:16:00,44.8,41.8,30.11,NNW,346,0.0,0.0,89,0.00,,,0.00,LWC V1.00 B64,2013-05-02 10:16:00,
2013-05-02 03:21:00,45.0,42.2,30.11,NNW,347,0.0,2.0,90,0.00,,,0.00,LWC V1.00 B64,2013-05-02 10:21:00,
2013-05-02 03:27:00,45.0,42.0,30.11,NNW,347,0.0,0.0,89,0.00,,,0.00,LWC V1.00 B64,2013-05-02 10:27:00,
2013-05-02 03:33:00,44.9,41.9,30.11,NNW,347,0.0,1.0,89,0.00,,,0.00,LWC V1.00 B64,2013-05-02 10:33:00,
2013-05-02 03:42:00,44.9,42.1,30.12,NNW,347,0.0,0.0,90,0.00,,,0.00,LWC V1.00 B64,2013-05-02 10:42:00,
2013-05-02 03:55:00,44.3,41.6,30.12,NNW,347,0.0,0.0,90,0.00,,,0.00,LWC V1.00 B64,2013-05-02 10:55:00,
2013-05-02 04:03:00,44.2,41.5,30.12,NNW,347,0.0,0.0,90,0.00,,,0.00,LWC V1.00 B64,2013-05-02 11:03:00,
2013-05-02 04:15:00,44.3,41.8,30.12,NNW,347,0.0,0.0,91,0.00,,,0.00,LWC V1.00 B64,2013-05-02 11:15:00,
2013-05-02 04:32:00,44.0,41.5,30.12,NNW,346,0.0,0.0,91,0.00,,,0.00,LWC V1.00 B64,2013-05-02 11:32:00,
2013-05-02 04:38:00,43.9,41.4,30.12,NNW,347,0.0,0.0,91,0.00,,,0.00,LWC V1.00 B64,2013-05-02 11:38:00,
2013-05-02 04:43:00,43.8,41.3,30.12,NNW,347,0.0,0.0,91,0.00,,,0.00,LWC V1.00 B64,2013-05-02 11:43:00,
2013-05-02 04:48:00,43.8,41.3,30.12,NNW,346,0.0,0.0,91,0.00,,,0.00,LWC V1.00 B64,2013-05-02 11:48:00,
2013-05-02 04:53:00,43.8,41.3,30.12,NNW,346,0.0,0.0,91,0.00,,,0.00,LWC V1.00 B64,2013-05-02 11:53:00,
2013-05-02 04:58:00,43.8,41.3,30.12,NNW,347,0.0,0.0,91,0.00,,,0.00,LWC V1.00 B64,2013-05-02 11:58:00,
2013-05-02 05:03:00,43.9,41.4,30.12,NNW,347,0.0,0.0,91,0.00,,,0.00,LWC V1.00 B64,2013-05-02 12:03:00,
2013-05-02 05:08:00,43.9,41.4,30.12,NNW,347,0.0,0.0,91,0.00,,,0.00,LWC V1.00 B64,2013-05-02 12:08:00,
2013-05-02 05:13:00,43.8,41.3,30.13,NNW,346,0.0,0.0,91,0.00,,,0.00,LWC V1.00 B64,2013-05-02 12:13:00,
2013-05-02 05:18:00,43.8,41.3,30.13,NNW,347,0.0,0.0,91,0.00,,,0.00,LWC V1.00 B64,2013-05-02 12:18:00,
2013-05-02 05:23:00,43.7,41.0,30.13,NNW,346,0.0,0.0,90,0.00,,,0.00,LWC V1.00 B64,2013-05-02 12:23:00,
2013-05-02 05:28:00,43.6,40.9,30.13,NNW,346,0.0,0.0,90,0.00,,,0.00,LWC V1.00 B64,2013-05-02 12:28:00,
2013-05-02 05:33:00,43.6,40.9,30.13,NNW,346,0.0,0.0,90,0.00,,,0.00,LWC V1.00 B64,2013-05-02 12:33:00,
2013-05-02 05:38:00,43.6,40.9,30.13,NNW,347,0.0,0.0,90,0.00,,,0.00,LWC V1.00 B64,2013-05-02 12:38:00,
2013-05-02 05:43:00,43.7,41.2,30.12,NNW,347,0.0,0.0,91,0.00,,,0.00,LWC V1.00 B64,2013-05-02 12:43:00,
2013-05-02 05:48:00,43.7,41.2,30.13,NNW,346,0.0,0.0,91,0.00,,,0.00,LWC V1.00 B64,2013-05-02 12:48:00,
2013-05-02 05:53:00,43.7,41.0,30.13,NNW,335,0.0,0.0,90,0.00,,,0.00,LWC V1.00 B64,2013-05-02 12:53:00,
2013-05-02 05:58:00,43.6,40.9,30.13,East,86,0.0,0.0,90,0.00,,,0.00,LWC V1.00 B64,2013-05-02 12:58:00,
2013-05-02 06:03:00,43.5,41.0,30.13,East,86,0.0,0.0,91,0.00,,,0.00,LWC V1.00 B64,2013-05-02 13:03:00,
2013-05-02 06:08:00,43.5,40.8,30.13,East,86,0.0,0.0,90,0.00,,,0.00,LWC V1.00 B64,2013-05-02 13:08:00,
2013-05-02 06:13:00,43.3,40.6,30.13,East,86,0.0,0.0,90,0.00,,,0.00,LWC V1.00 B64,2013-05-02 13:13:00,
2013-05-02 06:18:00,43.3,40.9,30.13,East,86,0.0,0.0,91,0.00,,,0.00,LWC V1.00 B64,2013-05-02 13:18:00,
2013-05-02 06:23:00,43.3,40.9,30.13,East,86,0.0,0.0,91,0.00,,,0.00,LWC V1.00 B64,2013-05-02 13:23:00,
2013-05-02 06:28:00,43.3,40.9,30.14,East,86,0.0,0.0,91,0.00,,,0.00,LWC V1.00 B64,2013-05-02 13:28:00,
2013-05-02 06:33:00,43.4,41.0,30.14,East,86,0.0,0.0,91,0.00,,,0.00,LWC V1.00 B64,2013-05-02 13:33:00,
2013-05-02 06:38:00,43.4,41.0,30.14,East,86,0.0,0.0,91,0.00,,,0.00,LWC V1.00 B64,2013-05-02 13:38:00,
2013-05-02 06:43:00,43.4,41.0,30.14,East,86,0.0,0.0,91,0.00,,,0.00,LWC V1.00 B64,2013-05-02 13:43:00,
2013-05-02 06:48:00,43.4,41.0,30.14,East,86,0.0,0.0,91,0.00,,,0.00,LWC V1.00 B64,2013-05-02 13:48:00,
2013-05-02 06:53:00,43.4,41.0,30.14,East,86,0.0,0.0,91,0.00,,,0.00,LWC V1.00 B64,2013-05-02 13:53:00,
2013-05-02 06:58:00,43.4,41.0,30.14,East,86,0.0,0.0,91,0.00,,,0.00,LWC V1.00 B64,2013-05-02 13:58:00,
2013-05-02 07:03:00,43.4,41.0,30.14,East,86,0.0,0.0,91,0.00,,,0.00,LWC V1.00 B64,2013-05-02 14:03:00,
2013-05-02 07:08:00,43.6,41.1,30.14,East,86,0.0,0.0,91,0.00,,,0.00,LWC V1.00 B64,2013-05-02 14:08:00,
2013-05-02 07:13:00,43.9,41.4,30.14,East,86,0.0,0.0,91,0.00,,,0.00,LWC V1.00 B64,2013-05-02 14:13:00,
2013-05-02 07:18:00,44.1,41.6,30.14,East,86,0.0,0.0,91,0.00,,,0.00,LWC V1.00 B64,2013-05-02 14:18:00,
2013-05-02 07:23:00,44.2,41.7,30.14,East,86,0.0,0.0,91,0.00,,,0.00,LWC V1.00 B64,2013-05-02 14:23:00,
2013-05-02 07:28:00,44.5,42.0,30.14,East,86,0.0,0.0,91,0.00,,,0.00,LWC V1.00 B64,2013-05-02 14:28:00,
2013-05-02 07:33:00,44.9,42.4,30.14,East,86,0.0,0.0,91,0.00,,,0.00,LWC V1.00 B64,2013-05-02 14:33:00,
2013-05-02 07:38:00,45.5,43.0,30.14,East,86,0.0,1.0,91,0.00,,,0.00,LWC V1.00 B64,2013-05-02 14:38:00,
2013-05-02 07:43:00,46.1,43.6,30.15,East,86,0.0,0.0,91,0.00,,,0.00,LWC V1.00 B64,2013-05-02 14:43:00,
2013-05-02 07:48:00,46.9,44.4,30.14,East,86,0.0,1.0,91,0.00,,,0.00,LWC V1.00 B64,2013-05-02 14:48:00,
2013-05-02 07:53:00,47.4,44.9,30.14,East,86,0.0,0.0,91,0.00,,,0.00,LWC V1.00 B64,2013-05-02 14:53:00,
2013-05-02 07:58:00,47.9,45.1,30.15,East,86,0.0,0.0,90,0.00,,,0.00,LWC V1.00 B64,2013-05-02 14:58:00,
2013-05-02 08:03:00,48.3,45.5,30.15,East,86,0.0,0.0,90,0.00,,,0.00,LWC V1.00 B64,2013-05-02 15:03:00,
2013-05-02 08:08:00,49.2,46.4,30.14,East,86,0.0,0.0,90,0.00,,,0.00,LWC V1.00 B64,2013-05-02 15:08:00,
2013-05-02 08:13:00,49.9,47.1,30.15,East,86,0.0,0.0,90,0.00,,,0.00,LWC V1.00 B64,2013-05-02 15:13:00,
2013-05-02 08:18:00,50.5,47.1,30.15,East,86,0.0,0.0,88,0.00,,,0.00,LWC V1.00 B64,2013-05-02 15:18:00,
2013-05-02 08:23:00,51.2,49.0,30.15,East,86,0.0,0.0,92,0.00,,,0.00,LWC V1.00 B64,2013-05-02 15:23:00,
2013-05-02 08:28:00,51.9,48.8,30.15,East,86,0.0,0.0,89,0.00,,,0.00,LWC V1.00 B64,2013-05-02 15:28:00,
2013-05-02 08:33:00,52.3,48.2,30.14,East,86,0.0,0.0,86,0.00,,,0.00,LWC V1.00 B64,2013-05-02 15:33:00,
2013-05-02 08:38:00,53.0,48.6,30.15,East,86,0.0,0.0,85,0.00,,,0.00,LWC V1.00 B64,2013-05-02 15:38:00,
2013-05-02 08:43:00,54.4,50.3,30.15,East,86,0.0,1.0,86,0.00,,,0.00,LWC V1.00 B64,2013-05-02 15:43:00,
2013-05-02 08:48:00,55.5,50.4,30.15,East,86,0.0,0.0,83,0.00,,,0.00,LWC V1.00 B64,2013-05-02 15:48:00,
2013-05-02 08:53:00,56.5,50.7,30.15,East,86,0.0,0.0,81,0.00,,,0.00,LWC V1.00 B64,2013-05-02 15:53:00,
2013-05-02 08:58:00,57.6,50.8,30.15,East,86,0.0,0.0,78,0.00,,,0.00,LWC V1.00 B64,2013-05-02 15:58:00,
2013-05-02 09:03:00,58.9,51.7,30.15,East,86,0.0,0.0,77,0.00,,,0.00,LWC V1.00 B64,2013-05-02 16:03:00,
2013-05-02 09:08:00,60.1,52.5,30.15,East,86,0.0,0.0,76,0.00,,,0.00,LWC V1.00 B64,2013-05-02 16:08:00,
2013-05-02 09:13:00,61.2,52.5,30.15,East,86,0.0,1.0,73,0.00,,,0.00,LWC V1.00 B64,2013-05-02 16:13:00,
2013-05-02 09:18:00,62.3,52.8,30.15,East,86,0.0,0.0,71,0.00,,,0.00,LWC V1.00 B64,2013-05-02 16:18:00,
2013-05-02 09:23:00,63.5,53.5,30.15,East,86,0.0,0.0,70,0.00,,,0.00,LWC V1.00 B64,2013-05-02 16:23:00,
2013-05-02 09:28:00,64.4,52.0,30.14,East,86,0.0,1.0,64,0.00,,,0.00,LWC V1.00 B64,2013-05-02 16:28:00,
2013-05-02 09:33:00,65.5,50.3,30.15,East,86,0.0,1.0,58,0.00,,,0.00,LWC V1.00 B64,2013-05-02 16:33:00,
2013-05-02 09:38:00,66.8,51.5,30.14,East,86,0.0,0.0,58,0.00,,,0.00,LWC V1.00 B64,2013-05-02 16:38:00,
2013-05-02 09:43:00,68.0,51.7,30.14,East,86,0.0,0.0,56,0.00,,,0.00,LWC V1.00 B64,2013-05-02 16:43:00,
2013-05-02 09:48:00,69.2,49.8,30.14,East,86,0.0,0.0,50,0.00,,,0.00,LWC V1.00 B64,2013-05-02 16:48:00,
2013-05-02 09:53:00,70.7,52.2,30.14,East,86,0.0,1.0,52,0.00,,,0.00,LWC V1.00 B64,2013-05-02 16:53:00,
2013-05-02 09:58:00,71.7,53.6,30.14,East,86,0.0,1.0,53,0.00,,,0.00,LWC V1.00 B64,2013-05-02 16:58:00,
2013-05-02 10:03:00,72.7,51.9,30.14,East,86,0.0,1.0,48,0.00,,,0.00,LWC V1.00 B64,2013-05-02 17:03:00,
2013-05-02 10:08:00,73.9,48.7,30.14,East,86,0.0,1.0,41,0.00,,,0.00,LWC V1.00 B64,2013-05-02 17:08:00,
2013-05-02 10:13:00,75.2,51.8,30.14,East,86,0.0,1.0,44,0.00,,,0.00,LWC V1.00 B64,2013-05-02 17:13:00,
2013-05-02 10:18:00,76.2,49.4,30.14,East,86,0.0,1.0,39,0.00,,,0.00,LWC V1.00 B64,2013-05-02 17:18:00,
2013-05-02 10:23:00,77.2,49.6,30.14,East,86,0.0,1.0,38,0.00,,,0.00,LWC V1.00 B64,2013-05-02 17:23:00,
2013-05-02 10:28:00,78.4,42.6,30.14,SSE,161,0.0,1.0,28,0.00,,,0.00,LWC V1.00 B64,2013-05-02 17:28:00,
2013-05-02 10:33:00,79.6,42.7,30.14,NE,43,0.0,3.0,27,0.00,,,0.00,LWC V1.00 B64,2013-05-02 17:33:00,
2013-05-02 10:38:00,80.6,38.2,30.14,South,184,0.0,2.0,22,0.00,,,0.00,LWC V1.00 B64,2013-05-02 17:38:00,
2013-05-02 10:43:00,81.5,37.8,30.14,SSE,152,0.0,2.0,21,0.00,,,0.00,LWC V1.00 B64,2013-05-02 17:43:00,
2013-05-02 10:48:00,82.2,38.4,30.14,SSE,150,0.0,2.0,21,0.00,,,0.00,LWC V1.00 B64,2013-05-02 17:48:00,
2013-05-02 10:53:00,82.8,36.3,30.14,SSE,149,0.0,1.0,19,0.00,,,0.00,LWC V1.00 B64,2013-05-02 17:53:00,
2013-05-02 10:58:00,83.5,38.2,30.14,East,83,0.0,2.0,20,0.00,,,0.00,LWC V1.00 B64,2013-05-02 17:58:00,
2013-05-02 11:03:00,84.1,37.4,30.14,ESE,102,0.0,1.0,19,0.00,,,0.00,LWC V1.00 B64,2013-05-02 18:03:00,
2013-05-02 11:08:00,84.4,37.6,30.14,South,169,1.0,2.0,19,0.00,,,0.00,LWC V1.00 B64,2013-05-02 18:08:00,
2013-05-02 11:13:00,84.8,33.6,30.15,South,186,0.0,3.0,16,0.00,,,0.00,LWC V1.00 B64,2013-05-02 18:13:00,
2013-05-02 11:18:00,85.3,40.9,30.14,ENE,72,3.0,3.0,21,0.00,,,0.00,LWC V1.00 B64,2013-05-02 18:18:00,
2013-05-02 11:23:00,85.6,37.2,30.14,SE,146,0.0,1.0,18,0.00,,,0.00,LWC V1.00 B64,2013-05-02 18:23:00,
2013-05-02 11:28:00,85.8,38.8,30.14,SSE,157,0.0,1.0,19,0.00,,,0.00,LWC V1.00 B64,2013-05-02 18:28:00,
2013-05-02 11:33:00,86.2,37.7,30.14,SSE,149,0.0,3.0,18,0.00,,,0.00,LWC V1.00 B64,2013-05-02 18:33:00,
2013-05-02 11:38:00,86.6,36.6,30.14,SSE,163,1.0,4.0,17,0.00,,,0.00,LWC V1.00 B64,2013-05-02 18:38:00,
2013-05-02 11:43:00,86.6,35.0,30.14,SSE,163,0.0,3.0,16,0.00,,,0.00,LWC V1.00 B64,2013-05-02 18:43:00,
2013-05-02 11:48:00,86.4,37.9,30.14,SW,215,2.0,4.0,18,0.00,,,0.00,LWC V1.00 B64,2013-05-02 18:48:00,
2013-05-02 11:53:00,86.4,37.9,30.14,South,183,1.0,3.0,18,0.00,,,0.00,LWC V1.00 B64,2013-05-02 18:53:00,
2013-05-02 11:58:00,86.7,38.1,30.14,South,188,0.0,2.0,18,0.00,,,0.00,LWC V1.00 B64,2013-05-02 18:58:00,
2013-05-02 12:03:00,87.0,35.4,30.14,South,189,0.0,2.0,16,0.00,,,0.00,LWC V1.00 B64,2013-05-02 19:03:00,
2013-05-02 12:08:00,87.4,37.2,30.14,SSW,192,0.0,2.0,17,0.00,,,0.00,LWC V1.00 B64,2013-05-02 19:08:00,
2013-05-02 12:13:00,88.0,36.2,30.14,South,191,0.0,3.0,16,0.00,,,0.00,LWC V1.00 B64,2013-05-02 19:13:00,
2013-05-02 12:18:00,88.3,39.4,30.14,South,189,4.0,4.0,18,0.00,,,0.00,LWC V1.00 B64,2013-05-02 19:18:00,
2013-05-02 12:23:00,88.3,34.8,30.14,South,190,0.0,2.0,15,0.00,,,0.00,LWC V1.00 B64,2013-05-02 19:23:00,
2013-05-02 12:28:00,88.5,36.6,30.14,South,186,0.0,2.0,16,0.00,,,0.00,LWC V1.00 B64,2013-05-02 19:28:00,
2013-05-02 12:33:00,88.3,33.0,30.14,NW,310,0.0,1.0,14,0.00,,,0.00,LWC V1.00 B64,2013-05-02 19:33:00,
2013-05-02 12:38:00,88.6,39.6,30.14,SSW,205,0.0,2.0,18,0.00,,,0.00,LWC V1.00 B64,2013-05-02 19:38:00,
2013-05-02 12:43:00,88.8,33.4,30.14,SW,219,0.0,1.0,14,0.00,,,0.00,LWC V1.00 B64,2013-05-02 19:43:00,
2013-05-02 12:48:00,89.2,40.1,30.13,SSW,209,0.0,4.0,18,0.00,,,0.00,LWC V1.00 B64,2013-05-02 19:48:00,
2013-05-02 12:53:00,89.5,32.1,30.13,SSW,209,0.0,3.0,13,0.00,,,0.00,LWC V1.00 B64,2013-05-02 19:53:00,
2013-05-02 12:58:00,89.6,30.2,30.13,SSW,208,1.0,3.0,12,0.00,,,0.00,LWC V1.00 B64,2013-05-02 19:58:00,
2013-05-02 13:03:00,88.8,33.4,30.13,WSW,255,3.0,4.0,14,0.00,,,0.00,LWC V1.00 B64,2013-05-02 20:03:00,
2013-05-02 13:08:00,88.0,31.0,30.13,WSW,256,0.0,3.0,13,0.00,,,0.00,LWC V1.00 B64,2013-05-02 20:08:00,
2013-05-02 13:13:00,87.6,47.4,30.13,North,0,5.0,7.0,25,0.00,,,0.00,LWC V1.00 B64,2013-05-02 20:13:00,
2013-05-02 13:18:00,86.6,50.5,30.13,NNW,340,0.0,9.0,29,0.00,,,0.00,LWC V1.00 B64,2013-05-02 20:18:00,
2013-05-02 13:23:00,85.9,52.6,30.13,NNW,348,5.0,9.0,32,0.00,,,0.00,LWC V1.00 B64,2013-05-02 20:23:00,
2013-05-02 13:28:00,84.6,52.3,30.13,NNW,345,5.0,7.0,33,0.00,,,0.00,LWC V1.00 B64,2013-05-02 20:28:00,
2013-05-02 13:33:00,84.1,51.0,30.12,North,0,4.0,5.0,32,0.00,,,0.00,LWC V1.00 B64,2013-05-02 20:33:00,
2013-05-02 13:38:00,84.6,52.3,30.12,North,0,4.0,4.0,33,0.00,,,0.00,LWC V1.00 B64,2013-05-02 20:38:00,
2013-05-02 13:43:00,85.2,53.6,30.12,North,5,2.0,5.0,34,0.00,,,0.00,LWC V1.00 B64,2013-05-02 20:43:00,
2013-05-02 13:48:00,85.4,53.8,30.12,North,355,2.0,5.0,34,0.00,,,0.00,LWC V1.00 B64,2013-05-02 20:48:00,
2013-05-02 13:53:00,85.2,52.0,30.13,NNE,17,1.0,9.0,32,0.00,,,0.00,LWC V1.00 B64,2013-05-02 20:53:00,
2013-05-02 13:58:00,85.1,55.9,30.12,North,9,0.0,6.0,37,0.00,,,0.00,LWC V1.00 B64,2013-05-02 20:58:00,
2013-05-02 14:03:00,84.8,59.1,30.12,NNE,18,3.0,6.0,42,0.00,,,0.00,LWC V1.00 B64,2013-05-02 21:03:00,
2013-05-02 14:08:00,84.1,57.1,30.12,North,5,2.0,14.0,40,0.00,,,0.00,LWC V1.00 B64,2013-05-02 21:08:00,
2013-05-02 14:13:00,83.8,57.6,30.12,NNW,331,6.0,11.0,41,0.00,,,0.00,LWC V1.00 B64,2013-05-02 21:13:00,
2013-05-02 14:18:00,83.4,57.2,30.12,North,0,11.0,13.0,41,0.00,,,0.00,LWC V1.00 B64,2013-05-02 21:18:00,
2013-05-02 14:23:00,83.0,55.5,30.12,NNW,345,5.0,11.0,39,0.00,,,0.00,LWC V1.00 B64,2013-05-02 21:23:00,
2013-05-02 14:28:00,82.6,55.1,30.12,NNW,330,8.0,14.0,39,0.00,,,0.00,LWC V1.00 B64,2013-05-02 21:28:00,
2013-05-02 14:33:00,82.1,53.9,30.12,North,355,5.0,14.0,38,0.00,,,0.00,LWC V1.00 B64,2013-05-02 21:33:00,
2013-05-02 14:38:00,82.1,52.5,30.12,North,0,8.0,13.0,36,0.00,,,0.00,LWC V1.00 B64,2013-05-02 21:38:00,
2013-05-02 14:43:00,82.3,53.4,30.12,NNW,348,9.0,11.0,37,0.00,,,0.00,LWC V1.00 B64,2013-05-02 21:43:00,
2013-05-02 14:48:00,82.7,53.7,30.12,North,0,8.0,11.0,37,0.00,,,0.00,LWC V1.00 B64,2013-05-02 21:48:00,
2013-05-02 14:53:00,82.8,53.1,30.12,North,355,9.0,12.0,36,0.00,,,0.00,LWC V1.00 B64,2013-05-02 21:53:00,
2013-05-02 14:58:00,82.8,53.1,30.12,North,355,4.0,13.0,36,0.00,,,0.00,LWC V1.00 B64,2013-05-02 21:58:00,
2013-05-02 15:03:00,82.7,52.2,30.11,North,355,7.0,12.0,35,0.00,,,0.00,LWC V1.00 B64,2013-05-02 22:03:00,
2013-05-02 15:08:00,82.6,52.1,30.11,North,0,12.0,12.0,35,0.00,,,0.00,LWC V1.00 B64,2013-05-02 22:08:00,
2013-05-02 15:13:00,83.0,54.0,30.11,North,10,7.0,10.0,37,0.00,,,0.00,LWC V1.00 B64,2013-05-02 22:13:00,
2013-05-02 15:18:00,82.9,51.6,30.11,NNW,341,5.0,13.0,34,0.00,,,0.00,LWC V1.00 B64,2013-05-02 22:18:00,
2013-05-02 15:23:00,82.9,51.6,30.11,North,350,9.0,13.0,34,0.00,,,0.00,LWC V1.00 B64,2013-05-02 22:23:00,
2013-05-02 15:28:00,82.6,52.1,30.11,NW,305,10.0,11.0,35,0.00,,,0.00,LWC V1.00 B64,2013-05-02 22:28:00,
2013-05-02 15:33:00,82.1,50.9,30.11,North,0,10.0,10.0,34,0.00,,,0.00,LWC V1.00 B64,2013-05-02 22:33:00,
2013-05-02 15:38:00,81.9,49.1,30.11,NNW,330,10.0,12.0,32,0.00,,,0.00,LWC V1.00 B64,2013-05-02 22:38:00,
2013-05-02 15:43:00,81.6,50.5,30.11,NNE,14,10.0,12.0,34,0.00,,,0.00,LWC V1.00 B64,2013-05-02 22:43:00,
2013-05-02 15:48:00,81.1,49.2,30.10,North,355,6.0,13.0,33,0.00,,,0.00,LWC V1.00 B64,2013-05-02 22:48:00,
2013-05-02 15:53:00,80.7,49.7,30.10,North,355,7.0,13.0,34,0.00,,,0.00,LWC V1.00 B64,2013-05-02 22:53:00,
2013-05-02 15:58:00,79.8,46.5,30.10,NNW,346,6.0,14.0,31,0.00,,,0.00,LWC V1.00 B64,2013-05-02 22:58:00,
2013-05-02 16:03:00,79.7,47.2,30.11,North,355,8.0,13.0,32,0.00,,,0.00,LWC V1.00 B64,2013-05-02 23:03:00,
2013-05-02 16:08:00,79.5,46.2,30.11,NNW,340,7.0,13.0,31,0.00,,,0.00,LWC V1.00 B64,2013-05-02 23:08:00,
2013-05-02 16:13:00,78.9,44.8,30.10,NNW,346,11.0,15.0,30,0.00,,,0.00,LWC V1.00 B64,2013-05-02 23:13:00,
2013-05-02 16:18:00,78.6,45.4,30.11,North,350,7.0,13.0,31,0.00,,,0.00,LWC V1.00 B64,2013-05-02 23:18:00,
2013-05-02 16:23:00,78.6,46.3,30.11,NNW,338,8.0,9.0,32,0.00,,,0.00,LWC V1.00 B64,2013-05-02 23:23:00,
2013-05-02 16:28:00,78.5,45.3,30.11,NNE,22,6.0,12.0,31,0.00,,,0.00,LWC V1.00 B64,2013-05-02 23:28:00,
2013-05-02 16:33:00,78.0,44.9,30.11,North,11,5.0,10.0,31,0.00,,,0.00,LWC V1.00 B64,2013-05-02 23:33:00,
2013-05-02 16:38:00,78.1,45.8,30.11,North,0,4.0,9.0,32,0.00,,,0.00,LWC V1.00 B64,2013-05-02 23:38:00,
2013-05-02 16:43:00,78.0,43.1,30.11,NNW,336,7.0,10.0,29,0.00,,,0.00,LWC V1.00 B64,2013-05-02 23:43:00,
2013-05-02 16:48:00,77.7,43.8,30.12,North,355,4.0,10.0,30,0.00,,,0.00,LWC V1.00 B64,2013-05-02 23:48:00,
2013-05-02 16:53:00,77.7,43.8,30.11,North,0,6.0,11.0,30,0.00,,,0.00,LWC V1.00 B64,2013-05-02 23:53:00,
2013-05-02 16:58:00,77.4,43.5,30.11,North,355,4.0,11.0,30,0.00,,,0.00,LWC V1.00 B64,2013-05-02 23:58:00,
2013-05-02 17:03:00,77.3,44.3,30.11,North,5,4.0,9.0,31,0.00,,,0.00,LWC V1.00 B64,2013-05-03 00:03:00,
2013-05-02 17:08:00,76.9,43.9,30.11,NNW,334,5.0,9.0,31,0.00,,,0.00,LWC V1.00 B64,2013-05-03 00:08:00,
2013-05-02 17:13:00,76.5,43.6,30.11,North,0,4.0,7.0,31,0.00,,,0.00,LWC V1.00 B64,2013-05-03 00:13:00,
2013-05-02 17:18:00,75.9,44.7,30.11,North,5,5.0,7.0,33,0.00,,,0.00,LWC V1.00 B64,2013-05-03 00:18:00,
2013-05-02 17:23:00,75.6,45.2,30.11,North,355,4.0,9.0,34,0.00,,,0.00,LWC V1.00 B64,2013-05-03 00:23:00,
2013-05-02 17:28:00,75.3,42.6,30.11,North,0,7.0,9.0,31,0.00,,,0.00,LWC V1.00 B64,2013-05-03 00:28:00,
2013-05-02 17:33:00,75.0,44.7,30.11,NNW,344,3.0,7.0,34,0.00,,,0.00,LWC V1.00 B64,2013-05-03 00:33:00,
2013-05-02 17:38:00,74.7,42.9,30.11,NNW,348,6.0,7.0,32,0.00,,,0.00,LWC V1.00 B64,2013-05-03 00:38:00,
2013-05-02 17:43:00,74.5,44.3,30.11,North,350,4.0,8.0,34,0.00,,,0.00,LWC V1.00 B64,2013-05-03 00:43:00,
2013-05-02 17:48:00,74.0,43.8,30.11,North,355,10.0,12.0,34,0.00,,,0.00,LWC V1.00 B64,2013-05-03 00:48:00,
2013-05-02 17:53:00,73.6,42.7,30.11,NW,315,7.0,10.0,33,0.00,,,0.00,LWC V1.00 B64,2013-05-03 00:53:00,
2013-05-02 17:58:00,73.4,43.3,30.11,NNW,335,4.0,7.0,34,0.00,,,0.00,LWC V1.00 B64,2013-05-03 00:58:00,
2013-05-02 18:03:00,73.6,42.7,30.11,NNW,337,11.0,12.0,33,0.00,,,0.00,LWC V1.00 B64,2013-05-03 01:03:00,
2013-05-02 18:08:00,73.3,40.8,30.11,NNW,333,4.0,11.0,31,0.00,,,0.00,LWC V1.00 B64,2013-05-03 01:08:00,
2013-05-02 18:13:00,73.3,41.6,30.11,North,355,4.0,7.0,32,0.00,,,0.00,LWC V1.00 B64,2013-05-03 01:13:00,
2013-05-02 18:18:00,73.2,41.6,30.11,NNW,328,6.0,7.0,32,0.00,,,0.00,LWC V1.00 B64,2013-05-03 01:18:00,
2013-05-02 18:23:00,73.2,39.0,30.11,North,350,1.0,6.0,29,0.00,,,0.00,LWC V1.00 B64,2013-05-03 01:23:00,
2013-05-02 18:28:00,73.3,39.1,30.11,NNW,346,4.0,4.0,29,0.00,,,0.00,LWC V1.00 B64,2013-05-03 01:28:00,
2013-05-02 18:33:00,73.1,38.0,30.11,NNW,344,2.0,7.0,28,0.00,,,0.00,LWC V1.00 B64,2013-05-03 01:33:00,
2013-05-02 18:38:00,73.0,37.0,30.11,North,0,4.0,6.0,27,0.00,,,0.00,LWC V1.00 B64,2013-05-03 01:38:00,
2013-05-02 18:43:00,72.8,36.9,30.10,North,0,6.0,9.0,27,0.00,,,0.00,LWC V1.00 B64,2013-05-03 01:43:00,
2013-05-02 18:48:00,72.8,35.9,30.10,NNW,346,5.0,6.0,26,0.00,,,0.00,LWC V1.00 B64,2013-05-03 01:48:00,
2013-05-02 18:53:00,72.5,35.7,30.10,North,350,4.0,5.0,26,0.00,,,0.00,LWC V1.00 B64,2013-05-03 01:53:00,
2013-05-02 18:58:00,72.0,35.2,30.10,NNE,14,3.0,6.0,26,0.00,,,0.00,LWC V1.00 B64,2013-05-03 01:58:00,
2013-05-02 19:03:00,71.7,35.0,30.10,North,0,3.0,6.0,26,0.00,,,0.00,LWC V1.00 B64,2013-05-03 02:03:00,
2013-05-02 19:08:00,71.5,36.7,30.10,North,0,1.0,4.0,28,0.00,,,0.00,LWC V1.00 B64,2013-05-03 02:08:00,
2013-05-02 19:13:00,71.2,36.4,30.10,North,5,1.0,4.0,28,0.00,,,0.00,LWC V1.00 B64,2013-05-03 02:13:00,
2013-05-02 19:18:00,71.0,37.1,30.10,North,5,0.0,3.0,29,0.00,,,0.00,LWC V1.00 B64,2013-05-03 02:18:00,
2013-05-02 19:23:00,70.6,36.8,30.10,North,0,0.0,0.0,29,0.00,,,0.00,LWC V1.00 B64,2013-05-03 02:23:00,
2013-05-02 19:28:00,70.1,36.4,30.10,North,5,0.0,1.0,29,0.00,,,0.00,LWC V1.00 B64,2013-05-03 02:28:00,
2013-05-02 19:33:00,69.4,35.8,30.10,North,5,0.0,2.0,29,0.00,,,0.00,LWC V1.00 B64,2013-05-03 02:33:00,
2013-05-02 19:38:00,68.9,36.2,30.10,North,9,0.0,0.0,30,0.00,,,0.00,LWC V1.00 B64,2013-05-03 02:38:00,
2013-05-02 19:43:00,68.3,37.3,30.10,North,9,0.0,0.0,32,0.00,,,0.00,LWC V1.00 B64,2013-05-03 02:43:00,
2013-05-02 19:48:00,67.8,36.9,30.10,North,9,0.0,0.0,32,0.00,,,0.00,LWC V1.00 B64,2013-05-03 02:48:00,
2013-05-02 19:53:00,67.1,37.8,30.11,North,9,0.0,0.0,34,0.00,,,0.00,LWC V1.00 B64,2013-05-03 02:53:00,
2013-05-02 19:58:00,66.6,38.8,30.11,North,9,0.0,0.0,36,0.00,,,0.00,LWC V1.00 B64,2013-05-03 02:58:00,
2013-05-02 20:03:00,66.1,39.7,30.11,North,9,0.0,0.0,38,0.00,,,0.00,LWC V1.00 B64,2013-05-03 03:03:00,
2013-05-02 20:08:00,65.7,42.0,30.11,North,9,0.0,0.0,42,0.00,,,0.00,LWC V1.00 B64,2013-05-03 03:08:00,
2013-05-02 20:13:00,65.2,42.1,30.11,North,9,0.0,0.0,43,0.00,,,0.00,LWC V1.00 B64,2013-05-03 03:13:00,
2013-05-02 20:18:00,64.6,41.6,30.11,North,9,0.0,0.0,43,0.00,,,0.00,LWC V1.00 B64,2013-05-03 03:18:00,
2013-05-02 20:23:00,64.2,45.2,30.11,North,9,0.0,1.0,50,0.00,,,0.00,LWC V1.00 B64,2013-05-03 03:23:00,
2013-05-02 20:28:00,63.8,45.3,30.11,North,9,0.0,0.0,51,0.00,,,0.00,LWC V1.00 B64,2013-05-03 03:28:00,
2013-05-02 20:33:00,63.3,43.8,30.11,North,9,0.0,0.0,49,0.00,,,0.00,LWC V1.00 B64,2013-05-03 03:33:00,
2013-05-02 20:38:00,62.9,43.4,30.11,North,9,0.0,0.0,49,0.00,,,0.00,LWC V1.00 B64,2013-05-03 03:38:00,
2013-05-02 20:43:00,62.5,43.6,30.11,North,9,0.0,0.0,50,0.00,,,0.00,LWC V1.00 B64,2013-05-03 03:43:00,
2013-05-02 20:48:00,62.0,43.7,30.11,North,9,0.0,0.0,51,0.00,,,0.00,LWC V1.00 B64,2013-05-03 03:48:00,
2013-05-02 20:54:00,61.6,43.8,30.11,North,9,0.0,0.0,52,0.00,,,0.00,LWC V1.00 B64,2013-05-03 03:54:00,
2013-05-02 20:59:00,61.2,43.4,30.11,North,9,0.0,0.0,52,0.00,,,0.00,LWC V1.00 B64,2013-05-03 03:59:00,
2013-05-02 21:01:00,61.0,44.2,30.11,North,9,0.0,0.0,54,0.00,,,0.00,LWC V1.00 B64,2013-05-03 04:01:00,
2013-05-02 21:03:00,60.9,46.0,30.11,North,9,0.0,0.0,58,0.00,,,0.00,LWC V1.00 B64,2013-05-03 04:03:00,
2013-05-02 21:04:00,60.8,45.9,30.11,North,9,0.0,0.0,58,0.00,,,0.00,LWC V1.00 B64,2013-05-03 04:04:00,
2013-05-02 21:07:00,60.5,44.7,30.11,North,9,0.0,0.0,56,0.00,,,0.00,LWC V1.00 B64,2013-05-03 04:07:00,
2013-05-02 21:08:00,60.5,44.2,30.11,North,9,0.0,0.0,55,0.00,,,0.00,LWC V1.00 B64,2013-05-03 04:08:00,
2013-05-02 21:13:00,60.0,43.8,30.11,North,9,0.0,0.0,55,0.00,,,0.00,LWC V1.00 B64,2013-05-03 04:13:00,
2013-05-02 21:18:00,59.6,42.0,30.11,North,9,0.0,0.0,52,0.00,,,0.00,LWC V1.00 B64,2013-05-03 04:18:00,
2013-05-02 21:23:00,59.2,42.1,30.11,North,9,0.0,0.0,53,0.00,,,0.00,LWC V1.00 B64,2013-05-03 04:23:00,
2013-05-02 21:28:00,58.8,41.2,30.11,North,9,0.0,1.0,52,0.00,,,0.00,LWC V1.00 B64,2013-05-03 04:28:00,
2013-05-02 21:33:00,58.3,41.2,30.11,North,9,0.0,1.0,53,0.00,,,0.00,LWC V1.00 B64,2013-05-03 04:33:00,
2013-05-02 21:38:00,58.0,41.0,30.11,North,9,0.0,0.0,53,0.00,,,0.00,LWC V1.00 B64,2013-05-03 04:38:00,
2013-05-02 21:43:00,57.8,40.8,30.11,North,9,0.0,1.0,53,0.00,,,0.00,LWC V1.00 B64,2013-05-03 04:43:00,
2013-05-02 21:48:00,57.6,40.6,30.11,North,9,0.0,0.0,53,0.00,,,0.00,LWC V1.00 B64,2013-05-03 04:48:00,
2013-05-02 21:53:00,57.3,41.7,30.11,North,9,0.0,0.0,56,0.00,,,0.00,LWC V1.00 B64,2013-05-03 04:53:00,
2013-05-02 21:58:00,57.0,39.1,30.11,North,9,0.0,0.0,51,0.00,,,0.00,LWC V1.00 B64,2013-05-03 04:58:00,
2013-05-02 22:03:00,56.7,40.2,30.11,North,9,0.0,0.0,54,0.00,,,0.00,LWC V1.00 B64,2013-05-03 05:03:00,
2013-05-02 22:08:00,56.2,40.2,30.11,North,9,0.0,0.0,55,0.00,,,0.00,LWC V1.00 B64,2013-05-03 05:08:00,
2013-05-02 22:13:00,55.7,40.2,30.11,North,9,0.0,0.0,56,0.00,,,0.00,LWC V1.00 B64,2013-05-03 05:13:00,
2013-05-02 22:18:00,55.5,41.8,30.11,North,9,0.0,0.0,60,0.00,,,0.00,LWC V1.00 B64,2013-05-03 05:18:00,
2013-05-02 22:23:00,55.3,41.7,30.11,North,9,0.0,0.0,60,0.00,,,0.00,LWC V1.00 B64,2013-05-03 05:23:00,
2013-05-02 22:28:00,54.9,40.8,30.11,North,9,0.0,0.0,59,0.00,,,0.00,LWC V1.00 B64,2013-05-03 05:28:00,
2013-05-02 22:33:00,54.5,40.5,30.11,North,9,0.0,0.0,59,0.00,,,0.00,LWC V1.00 B64,2013-05-03 05:33:00,
2013-05-02 22:38:00,54.1,40.1,30.11,North,9,0.0,0.0,59,0.00,,,0.00,LWC V1.00 B64,2013-05-03 05:38:00,
2013-05-02 22:43:00,53.7,40.1,30.11,North,9,0.0,1.0,60,0.00,,,0.00,LWC V1.00 B64,2013-05-03 05:43:00,
2013-05-02 22:48:00,53.3,39.8,30.11,North,9,0.0,0.0,60,0.00,,,0.00,LWC V1.00 B64,2013-05-03 05:48:00,
2013-05-02 22:53:00,53.1,39.2,30.11,North,9,0.0,0.0,59,0.00,,,0.00,LWC V1.00 B64,2013-05-03 05:53:00,
2013-05-02 22:58:00,52.8,40.1,30.11,North,9,0.0,0.0,62,0.00,,,0.00,LWC V1.00 B64,2013-05-03 05:58:00,
2013-05-02 23:03:00,52.8,40.6,30.11,North,9,0.0,0.0,63,0.00,,,0.00,LWC V1.00 B64,2013-05-03 06:03:00,
2013-05-02 23:08:00,52.6,40.4,30.11,North,9,0.0,0.0,63,0.00,,,0.00,LWC V1.00 B64,2013-05-03 06:08:00,
2013-05-02 23:13:00,52.3,40.5,30.10,North,9,0.0,0.0,64,0.00,,,0.00,LWC V1.00 B64,2013-05-03 06:13:00,
2013-05-02 23:18:00,51.9,40.5,30.11,North,9,0.0,0.0,65,0.00,,,0.00,LWC V1.00 B64,2013-05-03 06:18:00,
2013-05-02 23:23:00,51.8,40.0,30.11,North,9,0.0,0.0,64,0.00,,,0.00,LWC V1.00 B64,2013-05-03 06:23:00,
2013-05-02 23:28:00,51.7,40.3,30.11,North,9,0.0,0.0,65,0.00,,,0.00,LWC V1.00 B64,2013-05-03 06:28:00,
2013-05-02 23:33:00,51.7,41.1,30.10,North,9,0.0,0.0,67,0.00,,,0.00,LWC V1.00 B64,2013-05-03 06:33:00,
2013-05-02 23:38:00,51.5,40.5,30.11,North,9,0.0,0.0,66,0.00,,,0.00,LWC V1.00 B64,2013-05-03 06:38:00,
2013-05-02 23:43:00,51.3,39.5,30.10,North,9,0.0,1.0,64,0.00,,,0.00,LWC V1.00 B64,2013-05-03 06:43:00,
2013-05-02 23:48:00,51.1,39.7,30.10,North,9,0.0,0.0,65,0.00,,,0.00,LWC V1.00 B64,2013-05-03 06:48:00,
2013-05-02 23:53:00,50.9,38.8,30.10,North,9,0.0,0.0,63,0.00,,,0.00,LWC V1.00 B64,2013-05-03 06:53:00,
2013-05-02 23:58:00,50.9,39.2,30.10,North,9,0.0,0.0,64,0.00,,,0.00,LWC V1.00 B64,2013-05-03 06:58:00,